Terminal Aerodrome Forecast
Issued by NWS Albany, NY

Home | Current Version | Previous Version | Text Only | Print | Product List | Glossary On
Versions: 1 2 3 4 5 6 7 8 9 10 11 12 13 14 15 16 17 18 19 20 21 22 23
749
FTUS41 KALY 110521
TAFALB
TAF
KALB 110521Z 1106/1206 27008KT P6SM VCSH FEW040 OVC100
     FM110900 29009KT P6SM VCSH OVC040
     FM111500 29015G24KT P6SM VCSH BKN040
     FM120200 30012KT P6SM SCT040=

USA.gov is the U.S. government's official web portal to all federal, state and local government web resources and services.